Terminal Aerodrome Forecast
Issued by NWS

Home | Current Version | Previous Version | Graphics & Text | Print | Product List | Glossary On
Versions: 1 2 3 4 5 6 7 8 9 10 11 12 13 14 15 16 17 18 19 20
000
FTUS43 KGRB 261700 RRA
TAFAUW
TAF
KAUW 261741Z 2618/2718 VRB03KT 6SM HZ SCT020 OVC070
      TEMPO 2618/2622 BKN021
     FM262200 29005KT 6SM -SN BKN015 OVC030
     FM270300 32008KT 5SM -SN BKN014 BKN025 PROB30 2706/2709 2SM
      -SHSN
     FM271200 32011G17KT P6SM SCT025 BKN050
     FM271500 32012G20KT P6SM SCT030=

USA.gov is the U.S. government's official web portal to all federal, state and local government web resources and services.